Portada
METAR-TAF:

METAR-TAF

Aeroports :

Mount Isa, Austràlia

latitud: 20-40S, longitud: 139-28E, altitud: 342 m

Observació

L'informe es va fer fa 28 minuts, a les 01:00 UTC
Vent 12 kt del Sud-Est
Temperatura 31°C
Humitat 7%
Pressió 1016 hPa
Visibilitat 10 km o més

METAR: YBMA 140100Z AUTO 13012KT 9999 // NCD 31/M09 Q1016

Hora: 11:28 (01:28 UTC)

Pronòstic

L'informe es va fer fa 2 hores i 42 minuts, a les 22:46 UTC
Pronòstic vàlid del 14 a les 00 UTC al 14 a les 12 UTC
Vent 15 kt del Sud-Est amb ràfegues de 25 kt
Visibilitat 10 km o més
sense núvols per sota de 1500 mi sense presència de cumulonimbus.
A partir de les 14 a les 0300 UTC
Vent 14 kt del Sud/Sud-Est
Visibilitat 10 km o més
sense núvols per sota de 1500 mi sense presència de cumulonimbus.

TAF: YBMA 132246Z 1400/1412 14015G25KT CAVOK FM140300 16014KT CAVOK

Observacions i pronòstics meteorològics de més de 4000 aeroports (METAR i TAF).

Les estacions disponibles són els punts grocs i vermells al mapa.

Posi el ratolí al punt desitjat per veure el nom de l'estació.

Feu clic per veure les observacions i els pronòstics meteorològics.

Per canviar el mapa: feu clic els botons verds amb una creu de color negre per apropar; al botó verd amb un guió per allunyar la imatge; o en les fletxes verdes per a mapes adjacents.


METAR-TAF: